Time;durP1;ratioP1;P1;durP2;ratioP2;P2;SDS_P1;SDS_P2;PMS_P1;PMS_P2;Temp;Humidity;BMP_temperature;BMP_pressure;BME280_temperature;BME280_humidity;BME280_pressure;Samples;Min_cycle;Max_cycle;Signal;HPM_P1;HPM_P2
2023/09/21 00:00:14;;;;;;;13.38;7.97;;;;;;;;;;6239308;28;20037;-63
2023/09/21 00:03:35;;;;;;;17.33;8.52;;;;;;;;;;6238982;28;20054;-63
2023/09/21 00:06:36;;;;;;;13.15;8.38;;;;;;;;;;6239993;28;20132;-62
2023/09/21 00:09:37;;;;;;;15.63;8.20;;;;;;;;;;6239858;28;20058;-63
2023/09/21 00:12:39;;;;;;;20.83;8.80;;;;;;;;;;6239555;28;20096;-62
2023/09/21 00:15:42;;;;;;;16.02;8.75;;;;;;;;;;6240563;28;20104;-62
2023/09/21 00:18:43;;;;;;;14.30;8.05;;;;;;;;;;6245134;28;20041;-62
2023/09/21 00:21:44;;;;;;;15.85;8.48;;;;;;;;;;6244890;28;20072;-63
2023/09/21 00:24:45;;;;;;;17.88;9.15;;;;;;;;;;6244329;28;20466;-62
2023/09/21 00:27:45;;;;;;;15.52;8.80;;;;;;;;;;6244431;28;20048;-62
2023/09/21 00:30:46;;;;;;;18.58;9.25;;;;;;;;;;6244838;28;20041;-63
2023/09/21 00:33:46;;;;;;;15.35;8.93;;;;;;;;;;6242900;28;20037;-62
2023/09/21 00:36:47;;;;;;;18.90;9.10;;;;;;;;;;6244500;28;20470;-63
2023/09/21 00:39:48;;;;;;;14.55;8.70;;;;;;;;;;6244474;28;20049;-62
2023/09/21 00:42:52;;;;;;;14.70;8.20;;;;;;;;;;6248532;28;20246;-61
2023/09/21 00:45:55;;;;;;;16.13;8.70;;;;;;;;;;6243263;28;20408;-62
2023/09/21 00:48:56;;;;;;;18.17;8.55;;;;;;;;;;6244735;28;20065;-63
2023/09/21 00:51:58;;;;;;;12.93;8.67;;;;;;;;;;6242916;28;20046;-62
2023/09/21 00:54:59;;;;;;;18.00;8.88;;;;;;;;;;6243972;28;20326;-63
2023/09/21 00:58:02;;;;;;;14.90;8.20;;;;;;;;;;6243180;28;20034;-61
2023/09/21 01:01:05;;;;;;;14.20;8.07;;;;;;;;;;6243710;28;20397;-64
2023/09/21 01:04:06;;;;;;;18.55;9.10;;;;;;;;;;6243315;28;20045;-62
2023/09/21 01:07:17;;;;;;;15.90;8.30;;;;;;;;;;6243717;28;20077;-63
2023/09/21 01:10:23;;;;;;;13.77;7.80;;;;;;;;;;6244089;28;20080;-62
2023/09/21 01:13:27;;;;;;;12.95;7.53;;;;;;;;;;6242624;28;20492;-62
2023/09/21 01:16:27;;;;;;;12.80;8.07;;;;;;;;;;6243577;28;20045;-63
2023/09/21 01:19:28;;;;;;;19.27;8.23;;;;;;;;;;6243309;28;20053;-62
2023/09/21 01:22:30;;;;;;;15.35;7.93;;;;;;;;;;6243240;28;20429;-62
2023/09/21 01:25:31;;;;;;;16.25;9.15;;;;;;;;;;6243195;28;20068;-63
2023/09/21 01:28:31;;;;;;;13.05;8.30;;;;;;;;;;6242140;28;20056;-62
2023/09/21 01:31:32;;;;;;;13.38;8.02;;;;;;;;;;6242711;28;20154;-64
2023/09/21 01:34:36;;;;;;;14.90;8.45;;;;;;;;;;6242415;28;20057;-62
2023/09/21 01:37:36;;;;;;;16.17;8.45;;;;;;;;;;6241962;28;20037;-65
2023/09/21 01:40:38;;;;;;;16.60;8.60;;;;;;;;;;6250604;28;20404;-62
2023/09/21 01:43:39;;;;;;;13.93;8.15;;;;;;;;;;6249800;28;20152;-63
2023/09/21 01:46:39;;;;;;;15.35;8.63;;;;;;;;;;6242357;28;20053;-62
2023/09/21 01:49:41;;;;;;;16.67;8.32;;;;;;;;;;6258391;28;20044;-62
2023/09/21 01:52:42;;;;;;;16.10;8.73;;;;;;;;;;6265621;28;20053;-63
2023/09/21 01:55:44;;;;;;;17.60;8.57;;;;;;;;;;6265905;28;20424;-62
2023/09/21 01:58:46;;;;;;;14.48;8.55;;;;;;;;;;6243278;28;20041;-63
2023/09/21 02:01:50;;;;;;;15.02;9.10;;;;;;;;;;6243064;28;20136;-63
2023/09/21 02:04:51;;;;;;;15.32;8.48;;;;;;;;;;6240673;28;20099;-63
2023/09/21 02:07:52;;;;;;;14.82;8.20;;;;;;;;;;6239761;28;20037;-63
2023/09/21 02:10:52;;;;;;;14.45;8.40;;;;;;;;;;6240769;28;20450;-63
2023/09/21 02:13:53;;;;;;;15.45;8.23;;;;;;;;;;6241869;28;20034;-62
2023/09/21 02:16:55;;;;;;;13.82;7.63;;;;;;;;;;6242090;28;20053;-64
2023/09/21 02:19:55;;;;;;;12.85;8.18;;;;;;;;;;6242649;28;20428;-62
2023/09/21 02:22:58;;;;;;;15.90;8.93;;;;;;;;;;6241413;28;20065;-63
2023/09/21 02:25:59;;;;;;;14.82;8.50;;;;;;;;;;6238801;28;20053;-63
2023/09/21 02:29:01;;;;;;;16.02;8.20;;;;;;;;;;6239776;28;20462;-62
2023/09/21 02:32:03;;;;;;;14.65;7.75;;;;;;;;;;6242136;28;20044;-63
2023/09/21 02:35:07;;;;;;;13.40;8.10;;;;;;;;;;6241518;28;20436;-64
2023/09/21 02:38:09;;;;;;;13.50;7.53;;;;;;;;;;6240195;28;20040;-63
2023/09/21 02:41:10;;;;;;;15.32;8.35;;;;;;;;;;6252751;28;20754;-63
2023/09/21 02:44:10;;;;;;;13.38;8.18;;;;;;;;;;6240783;28;20069;-64
2023/09/21 02:47:11;;;;;;;15.05;8.77;;;;;;;;;;6240641;28;20515;-63
2023/09/21 02:50:16;;;;;;;13.98;8.40;;;;;;;;;;6239107;28;20037;-63
2023/09/21 02:53:17;;;;;;;13.07;7.68;;;;;;;;;;6240006;28;20132;-64
2023/09/21 02:56:20;;;;;;;13.18;7.75;;;;;;;;;;6240188;28;20069;-64
2023/09/21 02:59:20;;;;;;;15.25;7.40;;;;;;;;;;6241091;28;20045;-63
2023/09/21 03:02:21;;;;;;;17.95;8.45;;;;;;;;;;6240644;28;20080;-63
2023/09/21 03:05:24;;;;;;;15.20;8.25;;;;;;;;;;6239949;28;20046;-64
2023/09/21 03:08:25;;;;;;;12.98;7.85;;;;;;;;;;6240551;28;20140;-65
2023/09/21 03:11:26;;;;;;;14.83;7.93;;;;;;;;;;6239648;28;20057;-65
2023/09/21 03:14:28;;;;;;;14.73;7.75;;;;;;;;;;6240817;28;20870;-63
2023/09/21 03:17:29;;;;;;;13.20;7.60;;;;;;;;;;6237636;28;20413;-65
2023/09/21 03:20:34;;;;;;;13.77;7.67;;;;;;;;;;6240209;28;20049;-65
2023/09/21 03:23:35;;;;;;;13.07;7.40;;;;;;;;;;6239077;28;20064;-63
2023/09/21 03:26:38;;;;;;;11.52;7.07;;;;;;;;;;6237320;28;20136;-63
2023/09/21 03:29:39;;;;;;;11.55;6.88;;;;;;;;;;6238207;28;20037;-63
2023/09/21 03:32:40;;;;;;;12.57;7.22;;;;;;;;;;6225455;28;20413;-64
2023/09/21 03:35:40;;;;;;;13.65;7.40;;;;;;;;;;6238969;28;20119;-63
2023/09/21 03:38:41;;;;;;;12.35;7.07;;;;;;;;;;6240477;28;20041;-64
2023/09/21 03:41:41;;;;;;;14.23;7.25;;;;;;;;;;6250907;28;20125;-63
2023/09/21 03:44:42;;;;;;;12.60;7.00;;;;;;;;;;6245721;28;20076;-65
2023/09/21 03:47:43;;;;;;;10.68;7.25;;;;;;;;;;6238821;28;20050;-63
2023/09/21 03:50:44;;;;;;;11.50;6.95;;;;;;;;;;6241534;28;20053;-65
2023/09/21 03:53:44;;;;;;;12.90;7.28;;;;;;;;;;6245149;28;20413;-62
2023/09/21 03:56:45;;;;;;;13.02;7.53;;;;;;;;;;6243121;28;20069;-63
2023/09/21 03:59:46;;;;;;;15.30;7.10;;;;;;;;;;6241798;28;20048;-62
2023/09/21 04:02:47;;;;;;;10.90;6.70;;;;;;;;;;6243600;28;20058;-61
2023/09/21 04:05:47;;;;;;;17.05;7.47;;;;;;;;;;6244391;28;20049;-63
2023/09/21 04:08:48;;;;;;;12.32;6.65;;;;;;;;;;6227490;28;20460;-63
2023/09/21 04:11:48;;;;;;;11.57;6.80;;;;;;;;;;6242509;28;20049;-63
2023/09/21 04:14:51;;;;;;;12.18;7.53;;;;;;;;;;6243990;28;20045;-63
2023/09/21 04:17:53;;;;;;;12.73;6.72;;;;;;;;;;6243981;28;20042;-63
2023/09/21 04:20:53;;;;;;;13.32;6.47;;;;;;;;;;6256244;28;20041;-63
2023/09/21 04:23:54;;;;;;;14.48;6.35;;;;;;;;;;6254460;28;20040;-63
2023/09/21 04:26:54;;;;;;;13.02;6.10;;;;;;;;;;6242598;28;20083;-63
2023/09/21 04:29:55;;;;;;;12.35;6.47;;;;;;;;;;6239401;28;20048;-63
2023/09/21 04:32:57;;;;;;;11.27;6.63;;;;;;;;;;6241949;28;20068;-63
2023/09/21 04:35:57;;;;;;;12.73;6.82;;;;;;;;;;6253225;28;20092;-63
2023/09/21 04:38:59;;;;;;;11.98;7.05;;;;;;;;;;6242586;28;20496;-63
2023/09/21 04:42:00;;;;;;;9.85;6.35;;;;;;;;;;6244294;28;20041;-64
2023/09/21 04:45:01;;;;;;;10.20;5.97;;;;;;;;;;6242529;28;20280;-62
2023/09/21 04:48:03;;;;;;;10.68;6.00;;;;;;;;;;6250208;28;20084;-63
2023/09/21 04:51:05;;;;;;;13.75;6.53;;;;;;;;;;6243554;28;20048;-63
2023/09/21 04:54:06;;;;;;;12.10;6.50;;;;;;;;;;6243659;28;20489;-62
2023/09/21 04:57:07;;;;;;;18.10;6.50;;;;;;;;;;6243629;28;20159;-62
2023/09/21 05:00:10;;;;;;;9.93;6.22;;;;;;;;;;6243744;28;20042;-62
2023/09/21 05:03:11;;;;;;;11.52;6.38;;;;;;;;;;6249219;28;20144;-63
2023/09/21 05:06:11;;;;;;;11.55;6.53;;;;;;;;;;6240462;28;20572;-63
2023/09/21 05:09:12;;;;;;;12.18;6.40;;;;;;;;;;6244513;28;20041;-64
2023/09/21 05:12:13;;;;;;;13.02;6.05;;;;;;;;;;6260899;28;20049;-63
2023/09/21 05:15:15;;;;;;;12.00;6.53;;;;;;;;;;6254414;28;20045;-63
2023/09/21 05:18:16;;;;;;;15.90;7.03;;;;;;;;;;6244932;28;20104;-63
2023/09/21 05:21:17;;;;;;;14.07;6.07;;;;;;;;;;6242123;28;20041;-63
2023/09/21 05:24:17;;;;;;;9.02;5.97;;;;;;;;;;6242537;28;20068;-64
2023/09/21 05:27:19;;;;;;;11.93;6.13;;;;;;;;;;6242397;28;20065;-62
2023/09/21 05:30:19;;;;;;;13.47;5.83;;;;;;;;;;6242931;28;20779;-63
2023/09/21 05:33:20;;;;;;;11.60;6.63;;;;;;;;;;6247792;28;20428;-63
2023/09/21 05:36:21;;;;;;;11.60;6.03;;;;;;;;;;6249841;28;20049;-63
2023/09/21 05:39:23;;;;;;;13.83;6.57;;;;;;;;;;6243908;28;20038;-63
2023/09/21 05:42:23;;;;;;;15.48;6.20;;;;;;;;;;6242965;28;20041;-64
2023/09/21 05:45:24;;;;;;;13.07;5.85;;;;;;;;;;6243556;28;20061;-63
2023/09/21 05:48:25;;;;;;;16.33;6.10;;;;;;;;;;6242931;28;20044;-62
2023/09/21 05:51:26;;;;;;;18.98;6.30;;;;;;;;;;6248256;28;20439;-63
2023/09/21 05:54:26;;;;;;;9.90;5.55;;;;;;;;;;6247662;28;20045;-65
2023/09/21 05:57:27;;;;;;;14.05;6.18;;;;;;;;;;6254477;28;20069;-63
2023/09/21 06:00:28;;;;;;;15.25;6.93;;;;;;;;;;6256420;28;20033;-62
2023/09/21 06:03:29;;;;;;;13.52;5.75;;;;;;;;;;6258947;28;20053;-67
2023/09/21 06:06:31;;;;;;;10.45;5.50;;;;;;;;;;6258640;28;20490;-62
2023/09/21 06:09:33;;;;;;;12.18;5.90;;;;;;;;;;6254315;28;20472;-63
2023/09/21 06:12:34;;;;;;;11.93;5.90;;;;;;;;;;6256705;28;20045;-63
2023/09/21 06:15:37;;;;;;;14.45;5.60;;;;;;;;;;6258875;28;20052;-62
2023/09/21 06:18:37;;;;;;;11.73;5.43;;;;;;;;;;6259598;28;20500;-63
2023/09/21 06:21:39;;;;;;;10.82;5.32;;;;;;;;;;6255447;28;20045;-63
2023/09/21 06:24:42;;;;;;;;;;;;;;;;;;6257047;28;20496;-63
2023/09/21 06:27:42;;;;;;;11.98;4.60;;;;;;;;;;6258336;28;19920;-63
2023/09/21 06:30:44;;;;;;;11.30;5.22;;;;;;;;;;6256338;28;20803;-63
2023/09/21 06:33:45;;;;;;;;;;;;;;;;;;6263828;28;20043;-63
2023/09/21 06:36:45;;;;;;;14.10;5.15;;;;;;;;;;6243383;28;19925;-64
2023/09/21 06:39:46;;;;;;;9.95;4.25;;;;;;;;;;6240776;28;20061;-65
2023/09/21 06:42:47;;;;;;;8.88;4.35;;;;;;;;;;6241468;28;20119;-63
2023/09/21 06:45:48;;;;;;;12.32;4.30;;;;;;;;;;6248541;28;20053;-63
2023/09/21 06:48:48;;;;;;;11.75;4.38;;;;;;;;;;6238393;28;20045;-67
2023/09/21 06:51:49;;;;;;;15.18;4.30;;;;;;;;;;6248919;28;20516;-66
2023/09/21 06:54:50;;;;;;;14.50;6.07;;;;;;;;;;6244652;28;20377;-71
2023/09/21 06:57:51;;;;;;;13.02;5.15;;;;;;;;;;6244747;28;20036;-71
2023/09/21 07:00:51;;;;;;;12.10;4.40;;;;;;;;;;6247704;28;20038;-70
2023/09/21 07:03:52;;;;;;;11.07;4.00;;;;;;;;;;6238908;28;20052;-71
2023/09/21 07:06:52;;;;;;;12.45;4.47;;;;;;;;;;6241367;28;20041;-70
2023/09/21 07:09:54;;;;;;;9.30;3.78;;;;;;;;;;6241942;28;20041;-67
2023/09/21 07:12:55;;;;;;;8.90;3.95;;;;;;;;;;6239273;28;20053;-70
2023/09/21 07:15:56;;;;;;;7.00;3.80;;;;;;;;;;6245088;28;20940;-71
2023/09/21 07:18:57;;;;;;;8.30;3.73;;;;;;;;;;6221575;28;20045;-72
2023/09/21 07:21:58;;;;;;;8.07;4.15;;;;;;;;;;6242313;28;20041;-72
2023/09/21 07:25:03;;;;;;;9.63;3.80;;;;;;;;;;6242214;28;20041;-69
2023/09/21 07:28:04;;;;;;;9.35;4.30;;;;;;;;;;6240546;28;20120;-71
2023/09/21 07:31:05;;;;;;;9.10;3.88;;;;;;;;;;6239446;28;20500;-70
2023/09/21 07:34:06;;;;;;;7.80;3.73;;;;;;;;;;6240964;28;20046;-67
2023/09/21 07:37:12;;;;;;;9.20;4.00;;;;;;;;;;6242161;28;20420;-69
2023/09/21 07:40:14;;;;;;;9.23;3.70;;;;;;;;;;6244415;28;20051;-72
2023/09/21 07:43:15;;;;;;;;;;;;;;;;;;6239915;28;20045;-72
2023/09/21 07:46:15;;;;;;;8.35;3.90;;;;;;;;;;6240598;28;19928;-72
2023/09/21 07:49:16;;;;;;;6.60;3.53;;;;;;;;;;6239649;28;20042;-73
2023/09/21 07:52:18;;;;;;;8.97;3.67;;;;;;;;;;6246961;28;20108;-69
2023/09/21 07:55:18;;;;;;;9.35;3.50;;;;;;;;;;6251639;28;20452;-65
2023/09/21 07:58:19;;;;;;;8.17;3.40;;;;;;;;;;6239505;28;20045;-71
2023/09/21 08:01:19;;;;;;;7.87;3.60;;;;;;;;;;6238334;28;20042;-65
2023/09/21 08:04:21;;;;;;;8.77;3.40;;;;;;;;;;6239084;28;20095;-71
2023/09/21 08:07:25;;;;;;;;;;;;;;;;;;6245682;28;20045;-64
2023/09/21 08:10:26;;;;;;;7.57;3.65;;;;;;;;;;6240683;28;19943;-66
2023/09/21 08:13:27;;;;;;;12.60;4.90;;;;;;;;;;6240420;28;20493;-61
2023/09/21 08:16:29;;;;;;;10.93;4.30;;;;;;;;;;6238999;28;20050;-64
2023/09/21 08:19:29;;;;;;;;;;;;;;;;;;6238202;28;20099;-63
2023/09/21 08:22:30;;;;;;;8.18;4.10;;;;;;;;;;6239228;28;19925;-62
2023/09/21 08:25:30;;;;;;;6.60;3.57;;;;;;;;;;6241965;28;20390;-63
2023/09/21 08:28:31;;;;;;;11.40;4.43;;;;;;;;;;6238222;28;20596;-62
2023/09/21 08:31:31;;;;;;;9.30;3.97;;;;;;;;;;6237351;28;20519;-62
2023/09/21 08:34:32;;;;;;;8.23;3.73;;;;;;;;;;6238587;28;20445;-62
2023/09/21 08:37:33;;;;;;;10.13;3.60;;;;;;;;;;6240309;28;20057;-62
2023/09/21 08:40:34;;;;;;;8.87;3.43;;;;;;;;;;6242008;28;20505;-62
2023/09/21 08:43:35;;;;;;;6.60;3.37;;;;;;;;;;6242057;28;20481;-61
2023/09/21 08:46:38;;;;;;;5.57;3.07;;;;;;;;;;6242474;28;20049;-64
2023/09/21 08:49:43;;;;;;;8.45;3.50;;;;;;;;;;6242807;28;20071;-66
2023/09/21 08:52:45;;;;;;;7.75;3.08;;;;;;;;;;6250259;28;20045;-64
2023/09/21 08:55:52;;;;;;;7.72;3.50;;;;;;;;;;6251439;28;20049;-63
2023/09/21 08:58:57;;;;;;;8.23;3.42;;;;;;;;;;6242951;28;20541;-63
2023/09/21 09:01:58;;;;;;;10.32;3.53;;;;;;;;;;6245571;28;20393;-65
2023/09/21 09:05:00;;;;;;;8.45;3.20;;;;;;;;;;6246496;28;20084;-65
2023/09/21 09:08:01;;;;;;;8.73;3.05;;;;;;;;;;6264153;28;20049;-63
2023/09/21 09:11:02;;;;;;;;;;;;;;;;;;6264823;28;20060;-64
2023/09/21 09:14:04;;;;;;;8.80;3.08;;;;;;;;;;6266181;28;19925;-62
2023/09/21 09:17:12;;;;;;;7.40;3.20;;;;;;;;;;6257566;28;20047;-64
2023/09/21 09:20:12;;;;;;;8.80;3.22;;;;;;;;;;6245098;28;20049;-63
2023/09/21 09:23:14;;;;;;;6.73;2.57;;;;;;;;;;6241419;28;20045;-63
2023/09/21 09:26:16;;;;;;;5.40;2.75;;;;;;;;;;6247785;28;20528;-63
2023/09/21 09:29:17;;;;;;;5.10;3.17;;;;;;;;;;6240000;28;20519;-64
2023/09/21 09:32:19;;;;;;;5.88;3.08;;;;;;;;;;6241484;28;20512;-64
2023/09/21 09:35:20;;;;;;;5.13;2.97;;;;;;;;;;6244215;28;20056;-64
2023/09/21 09:38:20;;;;;;;7.73;3.60;;;;;;;;;;6239941;28;20096;-63
2023/09/21 09:41:22;;;;;;;7.60;3.30;;;;;;;;;;6248944;28;20051;-64
2023/09/21 09:44:24;;;;;;;8.02;3.40;;;;;;;;;;6241575;28;20523;-64
2023/09/21 09:47:29;;;;;;;7.40;3.10;;;;;;;;;;6242999;28;20451;-65
2023/09/21 09:50:33;;;;;;;7.72;3.05;;;;;;;;;;6245253;28;20558;-63
2023/09/21 09:53:34;;;;;;;7.50;3.42;;;;;;;;;;6239980;28;20102;-63
2023/09/21 09:56:41;;;;;;;6.28;3.63;;;;;;;;;;6241046;28;20488;-66
2023/09/21 09:59:44;;;;;;;9.25;3.50;;;;;;;;;;6244745;28;20062;-62
2023/09/21 10:02:47;;;;;;;7.07;3.47;;;;;;;;;;6253090;28;20060;-65
2023/09/21 10:05:49;;;;;;;8.40;3.78;;;;;;;;;;6249590;28;20076;-64
2023/09/21 10:08:51;;;;;;;6.45;3.55;;;;;;;;;;6239804;28;20463;-64
2023/09/21 10:11:53;;;;;;;8.02;3.50;;;;;;;;;;6247760;28;20041;-63
2023/09/21 10:14:54;;;;;;;8.80;3.95;;;;;;;;;;6243289;28;20066;-64
2023/09/21 10:17:57;;;;;;;7.57;3.60;;;;;;;;;;6244025;28;20037;-64
2023/09/21 10:20:59;;;;;;;7.88;3.60;;;;;;;;;;6240102;28;20049;-63
2023/09/21 10:24:13;;;;;;;7.13;3.55;;;;;;;;;;6239452;28;20045;-64
2023/09/21 10:27:14;;;;;;;12.13;3.95;;;;;;;;;;6244171;28;20037;-64
2023/09/21 10:30:18;;;;;;;7.70;3.93;;;;;;;;;;6240416;28;20095;-65
2023/09/21 10:33:20;;;;;;;8.50;4.18;;;;;;;;;;6240088;28;20064;-64
2023/09/21 10:36:21;;;;;;;9.68;4.00;;;;;;;;;;6244462;28;20420;-64
2023/09/21 10:39:24;;;;;;;9.20;3.90;;;;;;;;;;6240253;28;20053;-63
2023/09/21 10:42:33;;;;;;;10.70;4.05;;;;;;;;;;6245745;28;20136;-63
2023/09/21 10:45:56;;;;;;;8.50;4.10;;;;;;;;;;6240429;28;20041;-64
2023/09/21 10:49:12;;;;;;;8.43;4.07;;;;;;;;;;6239438;28;20052;-64
2023/09/21 10:52:14;;;;;;;7.45;3.83;;;;;;;;;;6243418;28;20061;-64
2023/09/21 10:55:20;;;;;;;8.40;4.38;;;;;;;;;;6244868;28;20071;-67
2023/09/21 10:58:21;;;;;;;7.78;4.38;;;;;;;;;;6240653;28;20056;-64
2023/09/21 11:01:22;;;;;;;8.52;4.35;;;;;;;;;;6241321;28;20056;-64
2023/09/21 11:04:24;;;;;;;11.43;4.47;;;;;;;;;;6237952;28;20100;-64
2023/09/21 11:07:25;;;;;;;8.13;4.57;;;;;;;;;;6245387;28;20041;-64
2023/09/21 11:10:25;;;;;;;8.63;4.47;;;;;;;;;;6238666;28;20053;-63
2023/09/21 11:13:29;;;;;;;7.80;4.20;;;;;;;;;;6237909;28;20124;-62
2023/09/21 11:16:29;;;;;;;8.93;4.60;;;;;;;;;;6242811;28;20420;-67
2023/09/21 11:19:30;;;;;;;8.38;4.25;;;;;;;;;;6239426;28;20057;-64
2023/09/21 11:22:33;;;;;;;8.37;4.60;;;;;;;;;;6238009;28;20049;-64
2023/09/21 11:25:33;;;;;;;10.23;4.22;;;;;;;;;;6237286;28;20037;-63
2023/09/21 11:28:36;;;;;;;10.30;4.33;;;;;;;;;;6244297;28;20032;-64
2023/09/21 11:31:36;;;;;;;11.00;4.35;;;;;;;;;;6252985;28;20085;-65
2023/09/21 11:34:39;;;;;;;11.87;5.23;;;;;;;;;;6247265;28;20049;-70
2023/09/21 11:37:41;;;;;;;10.07;5.30;;;;;;;;;;6243086;28;21008;-65
2023/09/21 11:40:42;;;;;;;11.98;5.20;;;;;;;;;;6229714;28;20052;-69
2023/09/21 11:43:42;;;;;;;16.87;5.30;;;;;;;;;;6243753;28;20053;-64
2023/09/21 11:46:44;;;;;;;13.83;5.73;;;;;;;;;;6238705;28;20053;-62
2023/09/21 11:49:44;;;;;;;12.27;6.72;;;;;;;;;;6242852;28;20041;-69
2023/09/21 11:52:45;;;;;;;11.90;5.97;;;;;;;;;;6246873;28;20065;-63
2023/09/21 11:55:46;;;;;;;15.45;6.25;;;;;;;;;;6247425;28;20205;-63
2023/09/21 11:58:46;;;;;;;11.27;6.00;;;;;;;;;;6239450;28;20836;-63
2023/09/21 12:01:48;;;;;;;11.27;5.57;;;;;;;;;;6247204;28;20736;-64
2023/09/21 12:04:49;;;;;;;15.02;6.07;;;;;;;;;;6245767;28;20052;-63
2023/09/21 12:07:50;;;;;;;15.43;5.93;;;;;;;;;;6244142;28;20556;-65
2023/09/21 12:10:52;;;;;;;12.07;6.80;;;;;;;;;;6244971;28;20037;-63
2023/09/21 12:13:52;;;;;;;12.27;6.50;;;;;;;;;;6248209;28;20101;-63
2023/09/21 12:16:53;;;;;;;11.23;6.73;;;;;;;;;;6252639;28;20041;-63
2023/09/21 12:19:54;;;;;;;11.38;6.25;;;;;;;;;;6252492;28;20052;-64
2023/09/21 12:22:56;;;;;;;13.83;6.77;;;;;;;;;;6248864;28;20506;-62
2023/09/21 12:25:56;;;;;;;13.07;6.65;;;;;;;;;;6249541;28;20186;-62
2023/09/21 12:28:57;;;;;;;11.00;6.40;;;;;;;;;;6251224;28;20045;-63
2023/09/21 12:31:58;;;;;;;10.77;6.17;;;;;;;;;;6248807;28;20053;-62
2023/09/21 12:35:02;;;;;;;12.98;6.63;;;;;;;;;;6250414;28;20298;-64
2023/09/21 12:38:03;;;;;;;15.00;7.30;;;;;;;;;;6249865;28;20041;-62
2023/09/21 12:41:03;;;;;;;15.73;7.57;;;;;;;;;;6252903;28;20048;-62
2023/09/21 12:44:07;;;;;;;13.70;6.73;;;;;;;;;;6250594;28;20298;-63
2023/09/21 12:47:10;;;;;;;14.30;6.45;;;;;;;;;;6247878;28;20053;-63
2023/09/21 12:50:13;;;;;;;12.70;6.70;;;;;;;;;;6246502;28;20049;-67
2023/09/21 12:53:14;;;;;;;13.05;6.43;;;;;;;;;;6251915;28;20044;-65
2023/09/21 12:56:14;;;;;;;11.87;5.60;;;;;;;;;;6251502;28;20076;-63
2023/09/21 12:59:15;;;;;;;12.47;5.53;;;;;;;;;;6248094;28;20318;-62
2023/09/21 13:02:16;;;;;;;14.37;5.77;;;;;;;;;;6245949;28;20616;-64
2023/09/21 13:05:16;;;;;;;9.87;4.90;;;;;;;;;;6247232;28;20875;-63
2023/09/21 13:08:17;;;;;;;10.65;5.50;;;;;;;;;;6249910;28;20049;-63
2023/09/21 13:11:18;;;;;;;9.60;5.40;;;;;;;;;;6250047;28;20056;-62
2023/09/21 13:14:18;;;;;;;13.53;6.37;;;;;;;;;;6246582;28;20192;-63
2023/09/21 13:17:23;;;;;;;10.93;5.50;;;;;;;;;;6248284;28;20398;-63
2023/09/21 13:20:24;;;;;;;9.82;4.97;;;;;;;;;;6250850;28;20053;-62
2023/09/21 13:23:29;;;;;;;10.93;5.10;;;;;;;;;;6247899;28;20130;-63
2023/09/21 13:26:29;;;;;;;9.90;5.10;;;;;;;;;;6252857;28;20045;-62
2023/09/21 13:29:30;;;;;;;11.40;5.43;;;;;;;;;;6248734;28;20459;-63
2023/09/21 13:32:30;;;;;;;7.53;4.73;;;;;;;;;;6232994;28;21629;-63
2023/09/21 13:35:33;;;;;;;11.53;5.07;;;;;;;;;;6248833;28;20841;-62
2023/09/21 13:38:36;;;;;;;9.57;4.93;;;;;;;;;;6248303;28;20099;-63
2023/09/21 13:41:37;;;;;;;11.67;4.93;;;;;;;;;;6253618;28;20041;-62
2023/09/21 13:44:38;;;;;;;;;;;;;;;;;;6247389;28;20547;-63
2023/09/21 13:47:41;;;;;;;11.13;4.90;;;;;;;;;;6249480;28;19967;-64
2023/09/21 13:50:42;;;;;;;12.13;4.80;;;;;;;;;;6249433;28;20544;-62
2023/09/21 13:53:44;;;;;;;;;;;;;;;;;;6246362;28;20064;-62
2023/09/21 13:56:45;;;;;;;10.67;4.83;;;;;;;;;;6252181;28;19960;-64
2023/09/21 13:59:45;;;;;;;12.60;4.60;;;;;;;;;;6247004;28;20045;-61
2023/09/21 14:02:48;;;;;;;7.55;4.38;;;;;;;;;;6246300;28;20113;-64
2023/09/21 14:05:49;;;;;;;11.95;5.13;;;;;;;;;;6249388;28;20520;-61
2023/09/21 14:08:50;;;;;;;12.80;4.47;;;;;;;;;;6250978;28;20053;-63
2023/09/21 14:11:50;;;;;;;11.93;4.37;;;;;;;;;;6249729;28;20094;-63
2023/09/21 14:14:51;;;;;;;10.50;4.83;;;;;;;;;;6250925;28;20118;-64
2023/09/21 14:17:51;;;;;;;10.63;5.03;;;;;;;;;;6244989;28;20064;-63
2023/09/21 14:20:53;;;;;;;10.77;4.73;;;;;;;;;;6249496;28;20142;-63
2023/09/21 14:23:54;;;;;;;10.25;4.78;;;;;;;;;;6245824;28;20060;-63
2023/09/21 14:26:55;;;;;;;12.63;4.97;;;;;;;;;;6251940;28;20574;-65
2023/09/21 14:29:55;;;;;;;10.57;4.80;;;;;;;;;;6249973;28;21415;-63
2023/09/21 14:32:56;;;;;;;10.33;5.23;;;;;;;;;;6249893;28;20132;-62
2023/09/21 14:35:57;;;;;;;9.73;5.13;;;;;;;;;;6247671;28;20049;-63
2023/09/21 14:38:58;;;;;;;12.70;5.22;;;;;;;;;;6249275;28;20048;-64
2023/09/21 14:41:59;;;;;;;10.07;4.83;;;;;;;;;;6245892;28;20412;-64
2023/09/21 14:44:59;;;;;;;11.43;4.72;;;;;;;;;;6249391;28;20423;-63
2023/09/21 14:48:00;;;;;;;9.70;4.93;;;;;;;;;;6251067;28;20055;-64
2023/09/21 14:51:00;;;;;;;11.10;5.33;;;;;;;;;;6249911;28;20045;-63
2023/09/21 14:54:01;;;;;;;12.80;5.37;;;;;;;;;;6249033;28;20064;-64
2023/09/21 14:57:02;;;;;;;10.03;5.07;;;;;;;;;;6246593;28;20547;-63
2023/09/21 15:00:06;;;;;;;8.70;4.70;;;;;;;;;;6250239;28;20048;-64
2023/09/21 15:03:07;;;;;;;10.90;5.28;;;;;;;;;;6247293;28;20199;-65
2023/09/21 15:06:08;;;;;;;11.07;5.00;;;;;;;;;;6245570;28;20055;-63
2023/09/21 15:09:09;;;;;;;11.25;4.68;;;;;;;;;;6250748;28;20067;-63
2023/09/21 15:12:09;;;;;;;10.83;5.67;;;;;;;;;;6250339;28;20228;-63
2023/09/21 15:15:11;;;;;;;11.63;5.33;;;;;;;;;;6247329;28;20049;-64
2023/09/21 15:18:12;;;;;;;15.95;6.68;;;;;;;;;;6248792;28;20176;-63
2023/09/21 15:21:13;;;;;;;13.43;4.93;;;;;;;;;;6247691;28;20083;-63
2023/09/21 15:24:13;;;;;;;11.00;4.77;;;;;;;;;;6227773;28;20313;-61
2023/09/21 15:27:17;;;;;;;12.83;5.30;;;;;;;;;;6246957;28;20137;-64
2023/09/21 15:30:17;;;;;;;12.75;5.50;;;;;;;;;;6249570;28;20563;-63
2023/09/21 15:33:18;;;;;;;14.00;5.50;;;;;;;;;;6249921;28;20140;-63
2023/09/21 15:36:20;;;;;;;13.20;6.07;;;;;;;;;;6248674;28;20407;-63
2023/09/21 15:39:20;;;;;;;12.90;6.32;;;;;;;;;;6249953;28;20057;-63
2023/09/21 15:42:21;;;;;;;16.90;6.47;;;;;;;;;;6239875;28;20041;-64
2023/09/21 15:45:22;;;;;;;12.67;5.50;;;;;;;;;;6241369;28;20060;-64
2023/09/21 15:48:23;;;;;;;10.70;5.27;;;;;;;;;;6252834;28;20047;-63
2023/09/21 15:51:23;;;;;;;;;;;;;;;;;;6251292;28;20055;-65
2023/09/21 15:54:26;;;;;;;9.57;5.00;;;;;;;;;;6252290;28;19924;-63
2023/09/21 15:57:28;;;;;;;11.27;5.10;;;;;;;;;;6248844;28;20049;-64
2023/09/21 16:00:30;;;;;;;13.90;5.32;;;;;;;;;;6251676;28;20433;-63
2023/09/21 16:03:30;;;;;;;;;;;;;;;;;;6251181;28;20052;-66
2023/09/21 16:06:31;;;;;;;9.85;5.25;;;;;;;;;;6251439;28;19978;-64
2023/09/21 16:09:33;;;;;;;10.70;5.25;;;;;;;;;;6249839;28;20539;-64
2023/09/21 16:12:34;;;;;;;13.50;5.60;;;;;;;;;;6229336;28;20057;-64
2023/09/21 16:15:35;;;;;;;11.20;5.37;;;;;;;;;;6251573;28;20045;-64
2023/09/21 16:18:35;;;;;;;13.40;6.10;;;;;;;;;;6252236;28;20057;-65
2023/09/21 16:21:38;;;;;;;13.50;6.17;;;;;;;;;;6218871;28;20365;-62
2023/09/21 16:24:38;;;;;;;13.23;6.18;;;;;;;;;;6250430;28;20084;-62
2023/09/21 16:27:39;;;;;;;12.93;6.23;;;;;;;;;;6248549;28;20045;-63
2023/09/21 16:30:40;;;;;;;13.47;6.70;;;;;;;;;;6253825;28;20045;-62
2023/09/21 16:33:41;;;;;;;;;;;;;;;;;;6249887;28;20083;-62
2023/09/21 16:36:42;;;;;;;12.15;6.50;;;;;;;;;;6250265;28;20427;-64
2023/09/21 16:39:43;;;;;;;13.25;7.50;;;;;;;;;;6250544;28;20853;-64
2023/09/21 16:42:44;;;;;;;17.40;7.70;;;;;;;;;;6252581;28;20908;-62
2023/09/21 16:45:44;;;;;;;16.73;8.10;;;;;;;;;;6252647;28;20158;-63
2023/09/21 16:48:45;;;;;;;16.93;7.87;;;;;;;;;;6252107;28;20056;-63
2023/09/21 16:51:46;;;;;;;17.83;8.30;;;;;;;;;;6247534;28;20120;-61
2023/09/21 16:54:46;;;;;;;14.67;8.27;;;;;;;;;;6250261;28;20049;-64
2023/09/21 16:57:47;;;;;;;19.83;9.10;;;;;;;;;;6252544;28;20141;-64
2023/09/21 17:00:48;;;;;;;19.20;9.47;;;;;;;;;;6249939;28;20110;-61
2023/09/21 17:03:49;;;;;;;20.53;10.07;;;;;;;;;;6247601;28;20504;-62
2023/09/21 17:06:49;;;;;;;18.17;9.87;;;;;;;;;;6251830;28;20663;-62
2023/09/21 17:09:50;;;;;;;17.77;9.90;;;;;;;;;;6247168;28;20169;-61
2023/09/21 17:12:53;;;;;;;20.83;10.60;;;;;;;;;;6234568;28;20102;-62
2023/09/21 17:15:53;;;;;;;20.80;10.35;;;;;;;;;;6252594;28;20676;-62
2023/09/21 17:18:54;;;;;;;23.47;12.27;;;;;;;;;;6250421;28;20049;-62
2023/09/21 17:21:56;;;;;;;20.00;10.90;;;;;;;;;;6255111;28;20425;-62
2023/09/21 17:24:58;;;;;;;22.63;11.57;;;;;;;;;;6231718;28;20049;-62
2023/09/21 17:27:59;;;;;;;25.90;12.40;;;;;;;;;;6253209;28;20047;-62
2023/09/21 17:31:00;;;;;;;21.23;12.07;;;;;;;;;;6249882;28;20052;-62
2023/09/21 17:34:01;;;;;;;25.83;12.65;;;;;;;;;;6251309;28;20057;-62
2023/09/21 17:37:01;;;;;;;25.10;12.07;;;;;;;;;;6253074;28;20091;-62
2023/09/21 17:40:04;;;;;;;23.80;12.60;;;;;;;;;;6249042;28;20055;-62
2023/09/21 17:43:04;;;;;;;22.05;12.73;;;;;;;;;;6250488;28;20057;-62
2023/09/21 17:46:06;;;;;;;;;;;;;;;;;;6252357;28;20510;-62
2023/09/21 17:49:06;;;;;;;28.23;13.13;;;;;;;;;;6232785;28;19928;-62
2023/09/21 17:52:08;;;;;;;24.43;12.87;;;;;;;;;;6251609;28;20060;-63
2023/09/21 17:55:09;;;;;;;32.63;13.70;;;;;;;;;;6232583;28;20037;-62
2023/09/21 17:58:09;;;;;;;29.20;14.43;;;;;;;;;;6252220;28;20080;-63